Time;durP1;ratioP1;P1;durP2;ratioP2;P2;SDS_P1;SDS_P2;PMS_P1;PMS_P2;Temp;Humidity;BMP_temperature;BMP_pressure;BME280_temperature;BME280_humidity;BME280_pressure;Samples;Min_cycle;Max_cycle;Signal;HPM_P1;HPM_P2
2023/07/29 00:01:16;;;;;;;16.87;5.90;;;16.70;61.90;;;;;;5056720;28;45956;-84
2023/07/29 00:03:42;;;;;;;11.97;5.70;;;16.70;62.20;;;;;;5059844;28;48034;-83
2023/07/29 00:06:09;;;;;;;14.17;4.87;;;16.70;62.20;;;;;;5056084;28;46813;-83
2023/07/29 00:08:34;;;;;;;10.27;5.13;;;16.60;62.30;;;;;;5059014;28;46742;-84
2023/07/29 00:11:00;;;;;;;12.00;4.90;;;16.40;62.30;;;;;;5059492;28;46484;-81
2023/07/29 00:13:25;;;;;;;8.70;5.27;;;16.40;62.40;;;;;;5056173;28;47945;-84
2023/07/29 00:15:53;;;;;;;10.77;4.70;;;16.40;61.60;;;;;;5056552;28;46453;-85
2023/07/29 00:18:19;;;;;;;15.27;5.30;;;16.40;62.60;;;;;;5058155;28;46487;-83
2023/07/29 00:20:45;;;;;;;11.73;4.67;;;16.30;63.60;;;;;;5056690;28;46023;-84
2023/07/29 00:23:10;;;;;;;15.97;4.67;;;16.30;62.50;;;;;;5056128;28;48313;-84
2023/07/29 00:25:36;;;;;;;11.73;4.30;;;16.30;62.50;;;;;;5039775;28;46508;-84
2023/07/29 00:28:02;;;;;;;12.77;4.07;;;16.20;61.60;;;;;;5061472;28;46404;-83
2023/07/29 00:30:27;;;;;;;14.87;4.53;;;16.20;62.90;;;;;;5064054;28;46606;-83
2023/07/29 00:32:53;;;;;;;9.47;4.60;;;16.40;63.00;;;;;;5058215;28;47552;-82
2023/07/29 00:35:18;;;;;;;7.67;4.37;;;16.20;62.90;;;;;;5057633;28;46912;-83
2023/07/29 00:37:44;;;;;;;13.50;4.13;;;16.10;61.90;;;;;;5055783;28;46566;-85
2023/07/29 00:40:30;;;;;;;18.90;5.13;;;16.10;63.00;;;;;;5057541;28;46857;-84
2023/07/29 00:42:56;;;;;;;11.50;4.67;;;16.10;63.20;;;;;;5040332;28;48275;-84
2023/07/29 00:45:23;;;;;;;9.13;3.90;;;16.10;63.10;;;;;;5059080;28;46637;-82
2023/07/29 00:47:49;;;;;;;10.70;3.90;;;16.00;62.10;;;;;;5057526;28;46508;-83
2023/07/29 00:50:15;;;;;;;8.70;4.20;;;16.00;63.10;;;;;;5057918;28;46464;-83
2023/07/29 00:52:41;;;;;;;10.97;4.40;;;16.00;63.10;;;;;;5043906;28;49112;-84
2023/07/29 00:55:07;;;;;;;13.73;4.20;;;16.00;63.20;;;;;;5043052;28;46762;-84
2023/07/29 00:57:33;;;;;;;12.77;4.53;;;16.00;63.20;;;;;;5062018;28;45904;-84
2023/07/29 01:00:00;;;;;;;9.27;4.30;;;16.00;63.10;;;;;;5061604;28;46479;-84
2023/07/29 01:02:26;;;;;;;8.77;4.83;;;16.10;63.10;;;;;;5061164;28;48178;-83
2023/07/29 01:04:57;;;;;;;24.20;5.00;;;16.00;63.20;;;;;;5043419;28;46770;-84
2023/07/29 01:07:32;;;;;;;8.13;4.13;;;15.80;63.10;;;;;;5061947;28;46579;-84
2023/07/29 01:10:05;;;;;;;9.43;4.20;;;16.00;63.40;;;;;;5043699;28;46831;-84
2023/07/29 01:12:57;;;;;;;8.30;5.00;;;15.90;63.30;;;;;;5040446;28;48474;-83
2023/07/29 01:15:38;;;;;;;9.37;4.67;;;15.90;63.00;;;;;;5031108;28;46442;-84
2023/07/29 01:18:08;;;;;;;14.33;5.30;;;15.90;61.70;;;;;;5063634;28;46513;-81
2023/07/29 01:20:37;;;;;;;24.47;5.87;;;16.00;62.70;;;;;;5043555;28;46636;-85
2023/07/29 01:23:02;;;;;;;9.17;5.43;;;16.00;62.60;;;;;;5042626;28;49632;-83
2023/07/29 01:25:28;;;;;;;13.03;4.20;;;16.10;62.30;;;;;;5059746;28;47166;-84
2023/07/29 01:27:55;;;;;;;8.30;4.50;;;16.20;61.10;;;;;;5061165;28;46359;-84
2023/07/29 01:30:25;;;;;;;9.60;3.80;;;16.30;62.20;;;;;;5064187;28;46585;-82
2023/07/29 01:33:10;;;;;;;13.33;4.30;;;16.40;62.10;;;;;;5042607;28;48285;-83
2023/07/29 01:35:46;;;;;;;12.40;4.23;;;16.20;62.30;;;;;;5061361;28;45882;-84
2023/07/29 01:38:19;;;;;;;7.10;3.53;;;16.20;61.50;;;;;;5061608;28;46578;-83
2023/07/29 01:40:45;;;;;;;7.50;4.00;;;16.10;62.80;;;;;;5063929;28;47723;-83
2023/07/29 01:43:10;;;;;;;6.87;3.50;;;16.00;63.10;;;;;;5060825;28;47753;-83
2023/07/29 01:45:38;;;;;;;6.03;3.70;;;15.90;63.20;;;;;;5061126;28;46756;-83
2023/07/29 01:48:07;;;;;;;17.43;4.47;;;15.80;63.50;;;;;;5060107;28;46970;-82
2023/07/29 01:50:33;;;;;;;9.33;4.00;;;15.70;63.40;;;;;;5060193;28;46406;-86
2023/07/29 01:52:59;;;;;;;9.07;4.50;;;15.80;63.50;;;;;;5045572;28;49501;-84
2023/07/29 01:55:25;;;;;;;8.60;3.90;;;15.70;63.50;;;;;;5062550;28;46735;-84
2023/07/29 01:57:51;;;;;;;12.67;4.03;;;15.80;63.70;;;;;;5063056;27;46588;-84
2023/07/29 02:00:21;;;;;;;11.03;4.50;;;15.60;63.50;;;;;;5062629;28;46321;-83
2023/07/29 02:02:46;;;;;;;8.53;4.67;;;15.60;63.40;;;;;;5046914;28;48506;-82
2023/07/29 02:05:12;;;;;;;8.73;4.07;;;15.60;63.40;;;;;;5064679;28;46463;-85
2023/07/29 02:07:38;;;;;;;10.57;4.43;;;15.70;63.40;;;;;;5049692;28;46398;-85
2023/07/29 02:10:04;;;;;;;8.60;3.73;;;15.70;63.10;;;;;;5047588;28;46865;-86
2023/07/29 02:12:29;;;;;;;7.83;3.90;;;15.80;62.80;;;;;;5047537;28;49350;-84
2023/07/29 02:14:55;;;;;;;13.07;4.60;;;15.90;62.70;;;;;;5046053;28;46936;-85
2023/07/29 02:17:20;;;;;;;10.63;4.20;;;15.90;62.50;;;;;;5065071;28;46340;-86
2023/07/29 02:19:46;;;;;;;14.43;4.90;;;15.90;62.60;;;;;;5063826;28;46400;-83
2023/07/29 02:22:17;;;;;;;10.17;4.77;;;16.00;62.50;;;;;;5060893;28;46382;-84
2023/07/29 02:24:43;;;;;;;10.13;4.37;;;16.80;63.00;;;;;;5062949;28;46619;-83
2023/07/29 02:27:09;;;;;;;11.40;4.40;;;16.00;62.30;;;;;;5059108;28;46390;-83
2023/07/29 02:29:34;;;;;;;17.03;4.67;;;16.00;62.30;;;;;;5044143;28;46693;-84
2023/07/29 02:32:00;;;;;;;8.40;4.30;;;16.10;62.30;;;;;;5062562;28;46538;-84
2023/07/29 02:34:26;;;;;;;8.97;3.67;;;16.10;62.40;;;;;;5060448;28;46359;-84
2023/07/29 02:36:51;;;;;;;19.23;4.17;;;16.10;62.30;;;;;;5062279;28;46532;-84
2023/07/29 02:39:17;;;;;;;10.50;4.40;;;16.10;62.30;;;;;;5060600;28;46563;-83
2023/07/29 02:41:43;;;;;;;14.20;4.30;;;16.10;62.50;;;;;;5065283;28;46404;-84
2023/07/29 02:44:08;;;;;;;8.20;4.10;;;16.00;62.60;;;;;;5060825;28;46659;-83
2023/07/29 02:46:34;;;;;;;17.17;4.10;;;16.00;62.80;;;;;;5061413;28;46468;-84
2023/07/29 02:48:59;;;;;;;10.00;3.67;;;16.00;62.80;;;;;;5061381;28;45899;-84
2023/07/29 02:51:25;;;;;;;8.87;4.13;;;16.00;63.00;;;;;;5058671;28;49820;-84
2023/07/29 02:53:50;;;;;;;8.17;4.03;;;16.20;63.10;;;;;;5061603;28;46415;-83
2023/07/29 02:56:16;;;;;;;15.17;4.70;;;16.10;62.80;;;;;;5041966;28;47374;-82
2023/07/29 02:58:42;;;;;;;19.83;4.30;;;16.20;62.80;;;;;;5062540;28;46587;-84
2023/07/29 03:01:07;;;;;;;14.27;4.67;;;16.50;62.50;;;;;;5058928;28;46526;-84
2023/07/29 03:03:33;;;;;;;7.83;3.93;;;16.30;62.00;;;;;;5059445;28;46795;-84
2023/07/29 03:06:03;;;;;;;10.33;4.10;;;16.40;61.10;;;;;;5059532;28;46568;-84
2023/07/29 03:08:29;;;;;;;7.93;3.70;;;16.40;61.90;;;;;;5059722;28;46383;-84
2023/07/29 03:10:55;;;;;;;13.07;3.90;;;16.40;62.10;;;;;;5043371;28;47852;-84
2023/07/29 03:13:21;;;;;;;17.37;4.70;;;16.40;62.20;;;;;;5039629;28;46730;-82
2023/07/29 03:15:47;;;;;;;10.33;4.03;;;16.40;62.30;;;;;;5060001;28;46750;-83
2023/07/29 03:18:12;;;;;;;11.93;4.53;;;16.40;62.30;;;;;;5042340;28;46722;-83
2023/07/29 03:20:38;;;;;;;8.30;4.03;;;16.50;61.90;;;;;;5043832;28;48022;-84
2023/07/29 03:23:03;;;;;;;9.80;4.07;;;16.60;61.90;;;;;;5060539;28;46396;-83
2023/07/29 03:25:29;;;;;;;6.70;3.47;;;16.60;62.00;;;;;;5059811;28;46347;-84
2023/07/29 03:27:55;;;;;;;9.13;3.90;;;16.60;61.90;;;;;;5060155;28;46507;-85
2023/07/29 03:30:21;;;;;;;9.53;4.33;;;16.60;62.00;;;;;;5059999;28;46531;-84
2023/07/29 03:32:47;;;;;;;6.83;3.63;;;16.60;62.00;;;;;;5062066;28;46518;-84
2023/07/29 03:35:13;;;;;;;6.63;3.83;;;16.60;62.30;;;;;;5058998;28;46652;-83
2023/07/29 03:37:39;;;;;;;13.27;4.00;;;16.60;61.50;;;;;;5058453;28;46319;-84
2023/07/29 03:40:05;;;;;;;8.87;4.20;;;16.70;62.90;;;;;;5061738;28;46546;-84
2023/07/29 03:42:31;;;;;;;15.23;4.60;;;16.50;63.00;;;;;;5042639;28;46703;-85
2023/07/29 03:44:56;;;;;;;10.47;3.70;;;16.40;63.30;;;;;;5060229;28;46447;-85
2023/07/29 03:47:22;;;;;;;8.40;3.67;;;16.30;63.60;;;;;;5058506;28;46906;-84
2023/07/29 03:49:48;;;;;;;15.50;4.13;;;16.30;63.60;;;;;;5047005;28;49075;-84
2023/07/29 03:52:13;;;;;;;12.73;4.23;;;16.30;63.70;;;;;;5058263;28;46490;-82
2023/07/29 03:54:39;;;;;;;14.10;3.77;;;16.20;63.70;;;;;;5060320;28;46667;-85
2023/07/29 03:57:05;;;;;;;12.30;3.83;;;16.20;63.70;;;;;;5060914;28;46519;-85
2023/07/29 03:59:30;;;;;;;6.80;3.63;;;16.20;63.80;;;;;;5058836;28;47477;-84
2023/07/29 04:01:56;;;;;;;9.57;3.80;;;16.20;63.80;;;;;;5058081;28;46806;-85
2023/07/29 04:04:21;;;;;;;11.23;3.67;;;16.20;63.80;;;;;;5060335;28;46542;-85
2023/07/29 04:06:47;;;;;;;5.47;3.90;;;16.10;63.80;;;;;;5065953;28;46423;-83
2023/07/29 04:09:13;;;;;;;6.30;4.27;;;16.20;63.70;;;;;;5056905;28;51158;-85
2023/07/29 04:11:39;;;;;;;6.50;4.10;;;16.20;63.70;;;;;;5056866;28;46348;-84
2023/07/29 04:14:04;;;;;;;9.70;4.17;;;16.30;63.70;;;;;;5057007;28;46409;-84
2023/07/29 04:16:30;;;;;;;11.63;3.73;;;16.30;63.20;;;;;;5058750;28;46339;-82
2023/07/29 04:18:56;;;;;;;8.40;3.60;;;16.50;62.90;;;;;;5058457;28;46502;-81
2023/07/29 04:21:21;;;;;;;7.50;4.17;;;16.60;62.60;;;;;;5042498;28;47102;-83
2023/07/29 04:23:47;;;;;;;9.00;3.60;;;16.70;62.40;;;;;;5062809;28;46523;-83
2023/07/29 04:26:13;;;;;;;9.83;4.03;;;16.80;62.00;;;;;;5061566;28;46937;-84
2023/07/29 04:28:38;;;;;;;8.00;4.03;;;17.00;61.70;;;;;;5042871;28;48443;-83
2023/07/29 04:31:04;;;;;;;7.23;3.40;;;17.10;61.20;;;;;;5061797;28;46701;-85
2023/07/29 04:33:30;;;;;;;7.87;4.07;;;17.30;62.10;;;;;;5063798;28;46515;-83
2023/07/29 04:35:56;;;;;;;11.50;3.60;;;17.50;59.70;;;;;;5061563;28;46451;-82
2023/07/29 04:38:22;;;;;;;5.77;2.93;;;17.50;60.60;;;;;;5041176;28;48468;-84
2023/07/29 04:40:49;;;;;;;5.33;3.03;;;17.70;60.50;;;;;;5063546;28;46742;-84
2023/07/29 04:43:15;;;;;;;15.37;3.30;;;17.80;60.20;;;;;;5060074;28;46568;-85
2023/07/29 04:45:44;;;;;;;13.90;4.20;;;18.10;60.20;;;;;;5064080;28;46582;-84
2023/07/29 04:48:09;;;;;;;7.57;3.20;;;18.30;60.20;;;;;;5046324;28;48502;-85
2023/07/29 04:50:35;;;;;;;7.53;2.97;;;18.40;59.80;;;;;;5061516;28;46328;-85
2023/07/29 04:53:00;;;;;;;7.77;3.20;;;18.60;59.60;;;;;;5064041;28;46306;-85
2023/07/29 04:55:26;;;;;;;5.07;2.77;;;19.10;60.00;;;;;;5062407;28;46475;-86
2023/07/29 04:57:51;;;;;;;9.83;3.10;;;19.10;59.10;;;;;;5060627;28;46039;-83
2023/07/29 05:00:17;;;;;;;5.00;2.70;;;19.30;58.40;;;;;;5041468;28;47295;-82
2023/07/29 05:02:43;;;;;;;5.93;2.53;;;19.50;58.40;;;;;;5041790;28;46878;-85
2023/07/29 05:05:08;;;;;;;8.00;3.03;;;19.60;58.30;;;;;;5062304;28;45859;-84
2023/07/29 05:07:34;;;;;;;5.77;2.70;;;20.40;57.80;;;;;;5045138;28;49089;-86
2023/07/29 05:10:00;;;;;;;4.90;2.77;;;21.20;56.90;;;;;;5060732;28;47639;-84
2023/07/29 05:12:25;;;;;;;4.63;2.40;;;21.60;54.10;;;;;;5060158;28;46408;-86
2023/07/29 05:14:51;;;;;;;5.83;2.30;;;21.40;52.90;;;;;;5041387;28;46336;-84
2023/07/29 05:17:16;;;;;;;6.50;2.70;;;21.10;53.60;;;;;;5061158;28;46734;-84
2023/07/29 05:19:42;;;;;;;4.67;2.43;;;20.70;54.50;;;;;;5063244;28;45835;-87
2023/07/29 05:22:10;;;;;;;3.93;2.30;;;;;;;;;;5063032;28;46607;-86
2023/07/29 05:24:35;;;;;;;5.73;2.83;;;20.10;54.60;;;;;;5062409;28;46361;-85
2023/07/29 05:27:01;;;;;;;6.23;2.90;;;19.80;56.50;;;;;;5062236;28;48133;-85
2023/07/29 05:29:26;;;;;;;10.33;2.97;;;19.60;57.00;;;;;;5049301;28;47127;-86
2023/07/29 05:31:52;;;;;;;4.70;2.30;;;19.70;57.20;;;;;;5043853;28;46489;-88
2023/07/29 05:34:17;;;;;;;8.33;2.77;;;19.60;56.60;;;;;;5062352;28;45828;-84
2023/07/29 05:36:43;;;;;;;10.13;3.00;;;19.70;56.10;;;;;;5060644;28;46558;-84
2023/07/29 05:39:08;;;;;;;5.80;2.80;;;19.90;55.70;;;;;;5040304;28;46970;-79
2023/07/29 05:41:34;;;;;;;6.03;2.90;;;20.00;54.90;;;;;;5059405;28;46768;-86
2023/07/29 05:43:59;;;;;;;5.23;2.83;;;20.10;54.30;;;;;;5044249;28;46722;-86
2023/07/29 05:46:25;;;;;;;4.33;2.40;;;20.30;54.00;;;;;;5063763;28;48176;-84
2023/07/29 05:48:50;;;;;;;6.60;3.07;;;20.50;53.40;;;;;;5063339;28;46541;-83
2023/07/29 05:51:16;;;;;;;5.07;2.60;;;20.60;53.20;;;;;;5058598;28;46320;-80
2023/07/29 05:53:41;;;;;;;6.03;2.70;;;20.60;53.00;;;;;;5066099;28;46368;-87
2023/07/29 05:56:07;;;;;;;7.30;2.83;;;20.70;52.10;;;;;;5063471;28;46712;-82
2023/07/29 05:58:33;;;;;;;5.70;2.90;;;20.70;53.20;;;;;;5055468;28;46733;-85
2023/07/29 06:00:58;;;;;;;9.10;2.83;;;20.90;52.70;;;;;;5055530;28;46192;-85
2023/07/29 06:03:24;;;;;;;8.53;3.13;;;22.60;52.00;;;;;;5040486;28;46567;-83
2023/07/29 06:05:50;;;;;;;5.37;3.10;;;;;;;;;;5059048;28;46254;-83
2023/07/29 06:08:16;;;;;;;6.83;2.83;;;23.20;44.20;;;;;;5040066;28;46459;-85
2023/07/29 06:10:41;;;;;;;7.00;2.77;;;23.00;46.00;;;;;;5058325;28;46701;-85
2023/07/29 06:13:07;;;;;;;13.93;3.07;;;22.20;48.30;;;;;;5062131;28;46463;-84
2023/07/29 06:15:32;;;;;;;6.70;3.50;;;21.50;50.10;;;;;;5061193;28;46424;-85
2023/07/29 06:17:58;;;;;;;15.10;3.37;;;21.90;52.90;;;;;;5044448;28;47472;-86
2023/07/29 06:20:23;;;;;;;10.57;3.30;;;20.60;53.30;;;;;;5065485;28;46582;-85
2023/07/29 06:22:49;;;;;;;15.70;3.30;;;20.20;54.60;;;;;;5064359;28;46369;-83
2023/07/29 06:25:15;;;;;;;14.90;3.60;;;20.10;55.50;;;;;;5063360;28;48138;-84
2023/07/29 06:27:40;;;;;;;11.53;3.30;;;19.80;55.80;;;;;;5047831;28;46552;-83
2023/07/29 06:30:06;;;;;;;6.93;3.20;;;19.70;56.00;;;;;;5065492;28;46500;-87
2023/07/29 06:32:32;;;;;;;7.63;3.60;;;19.80;56.60;;;;;;5067254;28;46502;-86
2023/07/29 06:34:58;;;;;;;7.30;3.50;;;21.70;57.20;;;;;;5052979;28;48357;-83
2023/07/29 06:37:23;;;;;;;8.43;3.37;;;19.80;53.90;;;;;;5069475;28;46865;-84
2023/07/29 06:39:49;;;;;;;5.07;2.93;;;19.90;54.80;;;;;;5071687;28;46482;-83
2023/07/29 06:42:14;;;;;;;5.67;3.00;;;20.00;54.60;;;;;;5063931;28;46566;-85
2023/07/29 06:44:40;;;;;;;7.80;3.40;;;20.10;54.60;;;;;;5063564;28;46505;-85
2023/07/29 06:47:06;;;;;;;6.70;3.60;;;20.00;54.20;;;;;;5064941;28;46471;-86
2023/07/29 06:49:31;;;;;;;5.17;3.20;;;19.80;54.60;;;;;;5063165;28;46422;-85
2023/07/29 06:51:57;;;;;;;7.33;2.90;;;19.80;55.20;;;;;;5061343;28;46542;-85
2023/07/29 06:54:26;;;;;;;7.93;2.97;;;19.60;55.70;;;;;;5064478;28;46617;-84
2023/07/29 06:56:52;;;;;;;7.20;3.10;;;19.60;55.60;;;;;;5059152;28;47039;-84
2023/07/29 06:59:18;;;;;;;5.83;3.03;;;19.60;55.40;;;;;;5064881;28;46747;-86
2023/07/29 07:01:43;;;;;;;4.37;2.63;;;19.60;55.00;;;;;;5061935;28;45887;-88
2023/07/29 07:04:09;;;;;;;7.80;3.00;;;19.70;54.70;;;;;;5066142;28;48044;-87
2023/07/29 07:06:35;;;;;;;6.50;2.73;;;19.80;54.60;;;;;;5066138;28;47078;-89
2023/07/29 07:09:00;;;;;;;4.97;3.10;;;20.00;54.40;;;;;;5057995;28;46136;-86
2023/07/29 07:11:26;;;;;;;6.20;3.20;;;20.10;54.20;;;;;;5071413;27;46654;-85
2023/07/29 07:13:51;;;;;;;5.67;3.37;;;20.00;53.90;;;;;;5068844;28;46349;-85
2023/07/29 07:16:17;;;;;;;10.43;3.00;;;20.20;53.50;;;;;;5068241;28;46909;-89
2023/07/29 07:18:43;;;;;;;5.00;3.07;;;20.50;53.00;;;;;;5054135;28;46463;-88
2023/07/29 07:21:09;;;;;;;5.27;2.87;;;20.70;52.30;;;;;;5072813;28;46468;-85
2023/07/29 07:23:34;;;;;;;5.87;3.20;;;21.10;51.30;;;;;;5072923;28;46584;-87
2023/07/29 07:26:00;;;;;;;5.60;2.77;;;21.80;48.30;;;;;;5070192;28;46818;-85
2023/07/29 07:28:25;;;;;;;5.43;3.00;;;21.80;49.50;;;;;;5069957;28;46730;-87
2023/07/29 07:30:51;;;;;;;6.70;2.70;;;22.00;49.60;;;;;;5070627;28;45999;-85
2023/07/29 07:33:17;;;;;;;6.80;3.10;;;;;;;;;;5067728;28;49127;-87
2023/07/29 07:35:43;;;;;;;6.07;2.90;;;;;;;;;;5053218;28;46538;-86
2023/07/29 07:38:09;;;;;;;5.97;3.23;;;22.40;46.30;;;;;;5069568;28;45868;-86
2023/07/29 07:40:36;;;;;;;5.87;3.03;;;22.50;48.20;;;;;;5068991;28;46520;-87
2023/07/29 07:43:02;;;;;;;4.57;2.90;;;22.50;47.60;;;;;;5048187;28;48365;-87
2023/07/29 07:45:27;;;;;;;4.83;2.97;;;22.70;48.00;;;;;;5065494;28;46431;-81
2023/07/29 07:47:53;;;;;;;5.87;2.87;;;22.60;47.40;;;;;;5062390;28;46253;-85
2023/07/29 07:50:19;;;;;;;3.90;2.53;;;22.70;47.40;;;;;;5060453;28;46601;-84
2023/07/29 07:52:45;;;;;;;8.50;3.30;;;22.80;47.10;;;;;;5050807;28;46394;-83
2023/07/29 07:55:11;;;;;;;5.83;2.90;;;22.80;46.80;;;;;;5046699;28;46444;-83
2023/07/29 07:57:36;;;;;;;4.53;3.10;;;23.00;46.40;;;;;;5055696;28;46618;-81
2023/07/29 08:00:04;;;;;;;7.90;4.07;;;23.10;46.10;;;;;;5058549;28;46383;-84
2023/07/29 08:02:30;;;;;;;6.23;3.80;;;23.20;45.50;;;;;;5054733;28;47900;-83
2023/07/29 08:04:55;;;;;;;7.43;3.17;;;23.10;45.30;;;;;;5060322;28;47180;-83
2023/07/29 08:07:21;;;;;;;8.10;3.10;;;23.10;45.40;;;;;;5059467;28;46482;-85
2023/07/29 08:09:46;;;;;;;6.73;2.73;;;23.10;44.80;;;;;;5057222;28;46419;-85
2023/07/29 08:12:12;;;;;;;6.60;3.60;;;23.10;45.10;;;;;;5039757;28;48550;-84
2023/07/29 08:14:38;;;;;;;5.87;3.43;;;23.10;44.40;;;;;;5059382;28;46750;-83
2023/07/29 08:17:03;;;;;;;6.23;3.30;;;23.30;44.30;;;;;;5064426;28;46635;-84
2023/07/29 08:19:29;;;;;;;6.90;3.67;;;23.30;44.10;;;;;;5060170;28;46467;-83
2023/07/29 08:21:54;;;;;;;6.23;3.60;;;23.40;43.80;;;;;;5061240;28;47375;-81
2023/07/29 08:24:20;;;;;;;7.20;3.80;;;23.50;43.70;;;;;;5061111;28;46542;-83
2023/07/29 08:26:46;;;;;;;10.73;3.87;;;23.60;43.20;;;;;;5062984;28;47021;-81
2023/07/29 08:29:12;;;;;;;7.30;4.20;;;23.70;42.70;;;;;;5062935;28;45847;-83
2023/07/29 08:31:37;;;;;;;6.00;3.73;;;23.80;42.50;;;;;;5039352;28;48616;-83
2023/07/29 08:34:03;;;;;;;6.20;3.00;;;23.80;42.20;;;;;;5058221;28;46806;-84
2023/07/29 08:36:29;;;;;;;7.53;3.60;;;24.00;42.30;;;;;;5058171;28;46483;-84
2023/07/29 08:38:54;;;;;;;9.23;4.10;;;24.20;41.90;;;;;;5057079;28;46311;-80
2023/07/29 08:41:27;;;;;;;6.97;3.90;;;24.00;41.90;;;;;;5061541;28;46690;-84
2023/07/29 08:43:59;;;;;;;5.00;3.40;;;24.00;42.00;;;;;;5058319;28;46604;-83
2023/07/29 08:46:25;;;;;;;6.40;4.23;;;24.00;42.40;;;;;;5039340;28;46631;-80
2023/07/29 08:48:51;;;;;;;7.20;3.57;;;24.20;42.50;;;;;;5056661;28;47826;-80
2023/07/29 08:51:17;;;;;;;8.17;3.80;;;24.30;42.50;;;;;;5057882;28;46554;-80
2023/07/29 08:53:43;;;;;;;5.70;3.40;;;24.50;42.00;;;;;;5033611;28;47041;-79
2023/07/29 08:56:09;;;;;;;10.30;4.23;;;24.80;40.30;;;;;;5058605;28;46733;-84
2023/07/29 08:58:35;;;;;;;6.30;3.47;;;24.80;41.10;;;;;;5058858;28;46693;-81
2023/07/29 09:01:01;;;;;;;9.10;3.87;;;24.80;40.70;;;;;;5057880;28;46648;-82
2023/07/29 09:03:27;;;;;;;6.43;3.60;;;24.90;40.30;;;;;;5057369;28;46573;-82
2023/07/29 09:05:54;;;;;;;8.90;3.50;;;25.30;37.70;;;;;;5057438;28;46439;-79
2023/07/29 09:08:21;;;;;;;5.90;3.17;;;25.20;38.80;;;;;;5040771;28;46414;-83
2023/07/29 09:10:46;;;;;;;9.87;3.67;;;25.40;38.90;;;;;;5054069;28;47749;-85
2023/07/29 09:13:12;;;;;;;6.50;3.30;;;25.40;38.20;;;;;;5063908;28;46759;-83
2023/07/29 09:15:38;;;;;;;7.23;3.60;;;25.40;38.10;;;;;;5043913;28;46912;-85
2023/07/29 09:18:18;;;;;;;6.07;3.83;;;25.60;37.20;;;;;;5062639;28;46487;-84
2023/07/29 09:20:45;;;;;;;6.33;3.40;;;25.80;35.90;;;;;;5043571;28;48494;-84
2023/07/29 09:23:11;;;;;;;8.70;3.73;;;25.90;35.80;;;;;;5062110;28;46482;-84
2023/07/29 09:25:37;;;;;;;9.83;3.27;;;26.20;35.00;;;;;;5062217;28;46131;-86
2023/07/29 09:28:09;;;;;;;5.47;3.27;;;26.10;34.40;;;;;;5062388;28;46674;-86
2023/07/29 09:30:35;;;;;;;6.80;3.37;;;26.30;34.10;;;;;;5061040;28;46397;-82
2023/07/29 09:33:00;;;;;;;5.40;2.90;;;26.50;33.20;;;;;;5060988;28;46508;-83
2023/07/29 09:35:32;;;;;;;5.90;2.70;;;26.70;32.00;;;;;;5059383;28;46490;-83
2023/07/29 09:37:57;;;;;;;4.80;2.97;;;26.80;31.10;;;;;;5043772;28;46527;-83
2023/07/29 09:40:23;;;;;;;5.10;3.00;;;26.80;30.30;;;;;;5063124;28;46512;-83
2023/07/29 09:42:53;;;;;;;5.87;3.50;;;27.20;29.80;;;;;;5058666;28;46448;-85
2023/07/29 09:45:26;;;;;;;7.50;3.60;;;27.10;28.80;;;;;;5061427;28;46467;-83
2023/07/29 09:47:53;;;;;;;6.43;2.53;;;26.90;29.00;;;;;;5059451;28;46355;-85
2023/07/29 09:50:23;;;;;;;4.80;2.53;;;27.10;29.00;;;;;;5064322;28;46527;-83
2023/07/29 09:52:50;;;;;;;6.47;3.40;;;27.30;27.40;;;;;;5062106;28;46959;-85
2023/07/29 09:55:18;;;;;;;4.90;2.97;;;27.50;28.30;;;;;;5044510;28;46823;-85
2023/07/29 09:57:45;;;;;;;6.40;2.73;;;27.50;26.80;;;;;;5055564;28;46708;-86
2023/07/29 10:00:11;;;;;;;6.90;3.30;;;27.20;25.60;;;;;;5048857;28;48390;-86
2023/07/29 10:02:42;;;;;;;5.73;3.03;;;27.00;26.20;;;;;;5046393;28;46495;-82
2023/07/29 10:05:09;;;;;;;6.07;3.20;;;27.00;26.30;;;;;;5042883;28;46119;-81
2023/07/29 10:07:38;;;;;;;8.40;3.33;;;27.20;26.50;;;;;;5056396;28;46713;-83
2023/07/29 10:10:05;;;;;;;11.93;3.80;;;27.10;25.30;;;;;;5037709;28;48023;-84
2023/07/29 10:12:32;;;;;;;87.70;16.07;;;27.10;25.30;;;;;;5042737;28;46388;-85
2023/07/29 10:15:04;;;;;;;17.90;5.37;;;27.10;24.80;;;;;;5041297;28;46434;-83
2023/07/29 10:17:33;;;;;;;19.47;5.80;;;27.30;24.90;;;;;;5041968;28;46572;-85
2023/07/29 10:19:59;;;;;;;12.97;3.87;;;27.60;24.60;;;;;;5063337;28;46618;-83
2023/07/29 10:22:27;;;;;;;11.50;3.10;;;28.10;24.10;;;;;;5062286;28;46555;-83
2023/07/29 10:24:57;;;;;;;5.60;3.00;;;28.30;22.10;;;;;;5060258;28;46494;-82
2023/07/29 10:27:26;;;;;;;6.83;3.10;;;28.50;22.10;;;;;;5063735;28;46673;-82
2023/07/29 10:29:54;;;;;;;8.53;3.27;;;28.50;21.50;;;;;;5048750;28;49456;-82
2023/07/29 10:32:24;;;;;;;10.20;3.10;;;28.10;21.80;;;;;;5064674;28;46553;-83
2023/07/29 10:34:50;;;;;;;6.07;2.13;;;27.40;21.50;;;;;;5063410;28;46762;-81
2023/07/29 10:37:16;;;;;;;5.27;2.17;;;26.50;23.00;;;;;;5062064;28;46513;-80
2023/07/29 10:39:52;;;;;;;5.93;2.47;;;25.20;23.30;;;;;;5045259;28;48195;-80
2023/07/29 10:42:18;;;;;;;4.30;2.20;;;24.20;25.00;;;;;;5045833;28;46858;-82
2023/07/29 10:44:49;;;;;;;4.00;1.90;;;23.50;25.70;;;;;;5046197;28;46420;-82
2023/07/29 10:47:23;;;;;;;12.43;2.10;;;23.20;26.10;;;;;;5045492;28;45891;-80
2023/07/29 10:49:55;;;;;;;9.03;2.03;;;23.10;26.80;;;;;;5048583;28;49505;-83
2023/07/29 10:52:36;;;;;;;5.27;2.20;;;23.70;26.50;;;;;;5065892;28;46568;-82
2023/07/29 10:55:03;;;;;;;4.10;2.17;;;24.00;25.80;;;;;;5057694;28;46671;-79
2023/07/29 10:57:38;;;;;;;4.50;2.07;;;24.20;25.70;;;;;;5055747;28;46591;-79
2023/07/29 11:00:05;;;;;;;4.43;2.23;;;24.30;25.60;;;;;;5058420;28;46453;-83
2023/07/29 11:02:38;;;;;;;3.73;2.17;;;24.50;25.60;;;;;;5058162;28;46763;-85
2023/07/29 11:05:17;;;;;;;3.80;2.10;;;24.80;25.90;;;;;;5061066;28;46376;-85
2023/07/29 11:07:48;;;;;;;4.70;2.47;;;25.20;26.10;;;;;;5058754;28;45971;-83
2023/07/29 11:10:14;;;;;;;4.73;2.27;;;25.60;25.30;;;;;;5040145;28;47351;-85
2023/07/29 11:12:47;;;;;;;4.90;2.70;;;26.20;25.40;;;;;;5058549;28;46550;-78
2023/07/29 11:15:14;;;;;;;3.83;2.13;;;26.10;25.10;;;;;;5058556;28;46948;-78
2023/07/29 11:18:00;;;;;;;5.50;2.70;;;26.00;24.90;;;;;;5061388;28;46435;-84
2023/07/29 11:20:27;;;;;;;5.50;2.57;;;26.20;25.30;;;;;;5048911;28;49178;-84
2023/07/29 11:22:54;;;;;;;7.17;2.80;;;26.70;25.00;;;;;;5074802;28;45819;-84
2023/07/29 11:25:23;;;;;;;4.17;2.40;;;27.00;24.20;;;;;;5051331;28;46431;-86
2023/07/29 11:27:48;;;;;;;5.20;2.63;;;27.00;23.90;;;;;;5063387;28;46428;-81
2023/07/29 11:30:16;;;;;;;4.90;2.83;;;27.30;23.70;;;;;;5036788;28;48239;-86
2023/07/29 11:32:44;;;;;;;9.33;2.70;;;27.50;23.30;;;;;;5021245;28;46580;-83
2023/07/29 11:35:17;;;;;;;6.60;3.13;;;27.80;22.70;;;;;;5058677;28;46837;-85
2023/07/29 11:37:51;;;;;;;5.90;2.93;;;27.10;22.10;;;;;;5060548;28;46395;-83
2023/07/29 11:40:21;;;;;;;6.60;2.97;;;27.10;23.10;;;;;;5046869;28;48520;-82
2023/07/29 11:42:50;;;;;;;6.37;3.07;;;26.60;23.10;;;;;;5043374;28;46427;-87
2023/07/29 11:45:16;;;;;;;4.80;3.00;;;26.10;24.10;;;;;;5064709;28;48035;-86
2023/07/29 11:47:42;;;;;;;8.43;3.10;;;26.10;25.00;;;;;;5047261;28;46328;-86
2023/07/29 11:50:09;;;;;;;5.10;2.90;;;26.20;25.10;;;;;;5063320;28;46430;-85
2023/07/29 11:52:37;;;;;;;9.47;2.93;;;26.40;25.30;;;;;;5052289;28;46778;-85
2023/07/29 11:55:04;;;;;;;6.10;2.70;;;26.30;27.70;;;;;;5065254;28;46458;-85
2023/07/29 11:57:36;;;;;;;8.07;3.77;;;25.70;27.50;;;;;;5044456;28;46525;-85
2023/07/29 12:00:03;;;;;;;10.17;3.97;;;24.90;29.90;;;;;;5061667;28;47131;-84
2023/07/29 12:02:30;;;;;;;8.00;3.57;;;24.20;33.30;;;;;;5048288;28;46626;-84
2023/07/29 12:04:57;;;;;;;7.50;3.70;;;23.90;35.00;;;;;;5044980;28;46457;-85
2023/07/29 12:07:23;;;;;;;7.70;4.00;;;24.00;34.90;;;;;;5052414;28;46503;-84
2023/07/29 12:09:50;;;;;;;6.50;3.80;;;24.30;35.20;;;;;;5041228;28;48465;-84
2023/07/29 12:12:16;;;;;;;8.60;3.60;;;24.40;34.90;;;;;;5059616;28;46558;-85
2023/07/29 12:14:45;;;;;;;6.10;3.73;;;24.40;35.50;;;;;;5059105;28;46399;-85
2023/07/29 12:17:11;;;;;;;10.03;3.40;;;24.30;35.90;;;;;;5041186;28;46490;-86
2023/07/29 12:19:37;;;;;;;6.33;3.63;;;24.20;36.40;;;;;;5043262;28;47955;-84
2023/07/29 12:22:05;;;;;;;7.20;4.00;;;24.20;36.60;;;;;;5060738;28;46525;-85
2023/07/29 12:24:33;;;;;;;6.13;3.80;;;24.10;36.30;;;;;;5062052;28;45840;-86
2023/07/29 12:26:59;;;;;;;7.47;3.70;;;24.00;36.50;;;;;;5059840;28;46574;-85
2023/07/29 12:29:25;;;;;;;7.97;4.87;;;;;;;;;;5043307;28;48264;-83
2023/07/29 12:31:59;;;;;;;12.57;5.30;;;24.00;36.00;;;;;;5040121;28;46494;-85
2023/07/29 12:34:26;;;;;;;13.03;4.17;;;23.90;37.70;;;;;;5059549;28;46802;-86
2023/07/29 12:36:52;;;;;;;11.23;3.60;;;23.60;38.80;;;;;;5058838;28;46502;-85
2023/07/29 12:39:20;;;;;;;11.80;3.90;;;23.50;39.70;;;;;;5049805;28;47647;-85
2023/07/29 12:41:47;;;;;;;7.13;3.60;;;23.40;39.80;;;;;;5042932;28;46436;-83
2023/07/29 12:44:12;;;;;;;6.63;4.10;;;23.50;39.80;;;;;;5042623;28;46843;-85